< < Back
Terminal Aerodrome Forecast


Current Version              Previous Versions:   1  2  3  4  5  6  7  8  9  

Terminal Aerodrome Forecast

242
FTUS42 KJAX 291438 AAB
TAFSSI
TAF AMD
KSSI 291438Z 2915/3012 27006KT P6SM BKN010
     FM291600 25008KT P6SM BKN015
     FM291900 20009KT P6SM SCT030
     FM300000 24006KT P6SM SCT040 SCT200=



Latest METAR

183
SAUS70 KWBC 292300 RRJ
MTRSSI
METAR KSSI 292253Z AUTO 23005KT 10SM CLR 29/21 A2999 RMK AO2 SLP157
T02940206


USA.gov is the U.S. government's official web portal to all federal, state and local government web resources and services.